sensor_id;sensor_type;location;lat;lon;timestamp;P1;durP1;ratioP1;P2;durP2;ratioP2
62332;SDS011;48624;49.812;8.562;2022-11-20T00:00:47;74.37;;;26.30;;
62332;SDS011;48624;49.812;8.562;2022-11-20T00:03:13;68.63;;;24.03;;
62332;SDS011;48624;49.812;8.562;2022-11-20T00:05:38;66.70;;;25.93;;
62332;SDS011;48624;49.812;8.562;2022-11-20T00:08:04;74.50;;;26.33;;
62332;SDS011;48624;49.812;8.562;2022-11-20T00:10:29;73.33;;;25.73;;
62332;SDS011;48624;49.812;8.562;2022-11-20T00:12:55;69.57;;;25.10;;
62332;SDS011;48624;49.812;8.562;2022-11-20T00:15:20;71.77;;;28.37;;
62332;SDS011;48624;49.812;8.562;2022-11-20T00:17:45;77.90;;;27.40;;
62332;SDS011;48624;49.812;8.562;2022-11-20T00:20:11;77.90;;;28.30;;
62332;SDS011;48624;49.812;8.562;2022-11-20T00:22:37;71.70;;;28.57;;
62332;SDS011;48624;49.812;8.562;2022-11-20T00:25:03;69.67;;;27.47;;
62332;SDS011;48624;49.812;8.562;2022-11-20T00:27:28;68.50;;;26.07;;
62332;SDS011;48624;49.812;8.562;2022-11-20T00:29:54;86.23;;;29.63;;
62332;SDS011;48624;49.812;8.562;2022-11-20T00:32:19;71.13;;;29.43;;
62332;SDS011;48624;49.812;8.562;2022-11-20T00:34:44;77.83;;;28.37;;
62332;SDS011;48624;49.812;8.562;2022-11-20T00:37:10;69.17;;;27.47;;
62332;SDS011;48624;49.812;8.562;2022-11-20T00:39:35;69.37;;;26.23;;
62332;SDS011;48624;49.812;8.562;2022-11-20T00:42:00;63.57;;;26.53;;
62332;SDS011;48624;49.812;8.562;2022-11-20T00:44:26;69.00;;;25.43;;
62332;SDS011;48624;49.812;8.562;2022-11-20T00:46:51;65.67;;;25.83;;
62332;SDS011;48624;49.812;8.562;2022-11-20T00:49:16;67.60;;;26.93;;
62332;SDS011;48624;49.812;8.562;2022-11-20T00:51:41;64.27;;;26.30;;
62332;SDS011;48624;49.812;8.562;2022-11-20T00:54:07;65.97;;;25.87;;
62332;SDS011;48624;49.812;8.562;2022-11-20T00:56:32;65.40;;;26.20;;
62332;SDS011;48624;49.812;8.562;2022-11-20T00:58:59;64.73;;;26.97;;
62332;SDS011;48624;49.812;8.562;2022-11-20T01:01:25;64.40;;;25.77;;
62332;SDS011;48624;49.812;8.562;2022-11-20T01:03:54;64.10;;;25.90;;
62332;SDS011;48624;49.812;8.562;2022-11-20T01:06:22;66.20;;;26.70;;
62332;SDS011;48624;49.812;8.562;2022-11-20T01:08:52;67.83;;;26.67;;
62332;SDS011;48624;49.812;8.562;2022-11-20T01:11:20;67.50;;;27.50;;
62332;SDS011;48624;49.812;8.562;2022-11-20T01:13:49;75.33;;;26.17;;
62332;SDS011;48624;49.812;8.562;2022-11-20T01:16:23;61.43;;;28.13;;
62332;SDS011;48624;49.812;8.562;2022-11-20T01:18:51;62.10;;;26.77;;
62332;SDS011;48624;49.812;8.562;2022-11-20T01:23:48;62.57;;;27.03;;
62332;SDS011;48624;49.812;8.562;2022-11-20T01:26:19;71.90;;;28.70;;
62332;SDS011;48624;49.812;8.562;2022-11-20T01:28:49;62.57;;;26.93;;
62332;SDS011;48624;49.812;8.562;2022-11-20T01:31:16;64.40;;;27.60;;
62332;SDS011;48624;49.812;8.562;2022-11-20T01:33:41;75.63;;;28.10;;
62332;SDS011;48624;49.812;8.562;2022-11-20T01:36:08;64.80;;;26.60;;
62332;SDS011;48624;49.812;8.562;2022-11-20T01:38:34;65.67;;;26.50;;
62332;SDS011;48624;49.812;8.562;2022-11-20T01:40:59;67.97;;;27.07;;
62332;SDS011;48624;49.812;8.562;2022-11-20T01:43:25;58.47;;;24.93;;
62332;SDS011;48624;49.812;8.562;2022-11-20T01:48:23;57.57;;;26.93;;
62332;SDS011;48624;49.812;8.562;2022-11-20T01:50:54;70.43;;;27.77;;
62332;SDS011;48624;49.812;8.562;2022-11-20T01:53:21;65.73;;;28.73;;
62332;SDS011;48624;49.812;8.562;2022-11-20T01:55:52;75.87;;;29.43;;
62332;SDS011;48624;49.812;8.562;2022-11-20T01:58:20;74.33;;;29.47;;
62332;SDS011;48624;49.812;8.562;2022-11-20T02:00:50;75.00;;;27.93;;
62332;SDS011;48624;49.812;8.562;2022-11-20T02:03:16;68.73;;;27.67;;
62332;SDS011;48624;49.812;8.562;2022-11-20T02:05:48;74.77;;;31.03;;
62332;SDS011;48624;49.812;8.562;2022-11-20T02:08:18;72.57;;;29.43;;
62332;SDS011;48624;49.812;8.562;2022-11-20T02:10:44;66.03;;;28.43;;
62332;SDS011;48624;49.812;8.562;2022-11-20T02:13:10;75.87;;;30.87;;
62332;SDS011;48624;49.812;8.562;2022-11-20T02:15:54;80.43;;;32.10;;
62332;SDS011;48624;49.812;8.562;2022-11-20T02:18:20;85.43;;;30.13;;
62332;SDS011;48624;49.812;8.562;2022-11-20T02:20:49;85.00;;;30.93;;
62332;SDS011;48624;49.812;8.562;2022-11-20T02:26:22;77.97;;;31.03;;
62332;SDS011;48624;49.812;8.562;2022-11-20T02:28:50;74.23;;;30.30;;
62332;SDS011;48624;49.812;8.562;2022-11-20T02:31:15;68.60;;;28.63;;
62332;SDS011;48624;49.812;8.562;2022-11-20T02:33:41;80.73;;;29.93;;
62332;SDS011;48624;49.812;8.562;2022-11-20T02:36:07;70.80;;;29.37;;
62332;SDS011;48624;49.812;8.562;2022-11-20T02:38:36;74.53;;;29.43;;
62332;SDS011;48624;49.812;8.562;2022-11-20T02:41:02;78.53;;;29.03;;
62332;SDS011;48624;49.812;8.562;2022-11-20T02:43:27;76.67;;;30.57;;
62332;SDS011;48624;49.812;8.562;2022-11-20T02:45:52;74.77;;;29.30;;
62332;SDS011;48624;49.812;8.562;2022-11-20T02:48:18;74.53;;;29.57;;
62332;SDS011;48624;49.812;8.562;2022-11-20T02:50:43;83.97;;;30.17;;
62332;SDS011;48624;49.812;8.562;2022-11-20T02:53:08;76.63;;;29.60;;
62332;SDS011;48624;49.812;8.562;2022-11-20T02:55:34;86.67;;;31.33;;
62332;SDS011;48624;49.812;8.562;2022-11-20T02:58:00;71.40;;;29.77;;
62332;SDS011;48624;49.812;8.562;2022-11-20T03:00:25;73.10;;;30.53;;
62332;SDS011;48624;49.812;8.562;2022-11-20T03:02:50;77.73;;;31.90;;
62332;SDS011;48624;49.812;8.562;2022-11-20T03:05:16;78.77;;;31.57;;
62332;SDS011;48624;49.812;8.562;2022-11-20T03:07:42;82.40;;;32.03;;
62332;SDS011;48624;49.812;8.562;2022-11-20T03:10:09;79.03;;;30.10;;
62332;SDS011;48624;49.812;8.562;2022-11-20T03:12:34;82.33;;;34.13;;
62332;SDS011;48624;49.812;8.562;2022-11-20T03:14:59;85.90;;;32.80;;
62332;SDS011;48624;49.812;8.562;2022-11-20T03:17:25;84.27;;;32.37;;
62332;SDS011;48624;49.812;8.562;2022-11-20T03:19:50;87.57;;;32.43;;
62332;SDS011;48624;49.812;8.562;2022-11-20T03:22:15;79.07;;;31.53;;
62332;SDS011;48624;49.812;8.562;2022-11-20T03:24:41;83.03;;;31.63;;
62332;SDS011;48624;49.812;8.562;2022-11-20T03:27:06;85.07;;;30.73;;
62332;SDS011;48624;49.812;8.562;2022-11-20T03:29:34;77.43;;;32.40;;
62332;SDS011;48624;49.812;8.562;2022-11-20T03:32:00;77.37;;;29.40;;
62332;SDS011;48624;49.812;8.562;2022-11-20T03:34:25;89.83;;;30.50;;
62332;SDS011;48624;49.812;8.562;2022-11-20T03:36:50;84.50;;;30.90;;
62332;SDS011;48624;49.812;8.562;2022-11-20T03:39:16;79.63;;;27.60;;
62332;SDS011;48624;49.812;8.562;2022-11-20T03:41:41;75.33;;;31.07;;
62332;SDS011;48624;49.812;8.562;2022-11-20T03:44:08;79.93;;;29.10;;
62332;SDS011;48624;49.812;8.562;2022-11-20T03:46:34;76.63;;;28.83;;
62332;SDS011;48624;49.812;8.562;2022-11-20T03:49:00;76.87;;;30.10;;
62332;SDS011;48624;49.812;8.562;2022-11-20T03:51:30;81.90;;;30.00;;
62332;SDS011;48624;49.812;8.562;2022-11-20T03:53:57;88.50;;;31.13;;
62332;SDS011;48624;49.812;8.562;2022-11-20T03:56:27;87.07;;;33.13;;
62332;SDS011;48624;49.812;8.562;2022-11-20T03:58:54;79.77;;;28.77;;
62332;SDS011;48624;49.812;8.562;2022-11-20T04:01:21;77.87;;;30.77;;
62332;SDS011;48624;49.812;8.562;2022-11-20T04:03:48;75.47;;;30.77;;
62332;SDS011;48624;49.812;8.562;2022-11-20T04:06:18;79.07;;;31.17;;
62332;SDS011;48624;49.812;8.562;2022-11-20T04:08:55;75.93;;;29.17;;
62332;SDS011;48624;49.812;8.562;2022-11-20T04:11:24;65.80;;;27.53;;
62332;SDS011;48624;49.812;8.562;2022-11-20T04:13:54;70.80;;;27.23;;
62332;SDS011;48624;49.812;8.562;2022-11-20T04:16:24;70.67;;;27.03;;
62332;SDS011;48624;49.812;8.562;2022-11-20T04:18:51;60.67;;;25.17;;
62332;SDS011;48624;49.812;8.562;2022-11-20T04:21:21;63.77;;;25.67;;
62332;SDS011;48624;49.812;8.562;2022-11-20T04:23:46;60.90;;;24.63;;
62332;SDS011;48624;49.812;8.562;2022-11-20T04:26:12;57.77;;;24.13;;
62332;SDS011;48624;49.812;8.562;2022-11-20T04:28:38;61.90;;;24.13;;
62332;SDS011;48624;49.812;8.562;2022-11-20T04:31:08;62.17;;;24.80;;
62332;SDS011;48624;49.812;8.562;2022-11-20T04:33:35;65.20;;;25.47;;
62332;SDS011;48624;49.812;8.562;2022-11-20T04:36:03;59.37;;;24.13;;
62332;SDS011;48624;49.812;8.562;2022-11-20T04:38:32;62.77;;;25.37;;
62332;SDS011;48624;49.812;8.562;2022-11-20T04:41:02;53.10;;;22.67;;
62332;SDS011;48624;49.812;8.562;2022-11-20T04:43:29;63.53;;;24.20;;
62332;SDS011;48624;49.812;8.562;2022-11-20T04:45:57;62.83;;;24.90;;
62332;SDS011;48624;49.812;8.562;2022-11-20T04:48:23;61.30;;;26.27;;
62332;SDS011;48624;49.812;8.562;2022-11-20T04:50:51;59.83;;;24.77;;
62332;SDS011;48624;49.812;8.562;2022-11-20T04:53:16;59.83;;;25.23;;
62332;SDS011;48624;49.812;8.562;2022-11-20T04:55:42;62.63;;;25.37;;
62332;SDS011;48624;49.812;8.562;2022-11-20T04:58:08;58.50;;;25.17;;
62332;SDS011;48624;49.812;8.562;2022-11-20T05:00:33;61.00;;;25.70;;
62332;SDS011;48624;49.812;8.562;2022-11-20T05:02:58;69.00;;;24.33;;
62332;SDS011;48624;49.812;8.562;2022-11-20T05:05:24;60.37;;;23.83;;
62332;SDS011;48624;49.812;8.562;2022-11-20T05:07:49;60.60;;;24.13;;
62332;SDS011;48624;49.812;8.562;2022-11-20T05:10:14;62.80;;;24.03;;
62332;SDS011;48624;49.812;8.562;2022-11-20T05:12:40;57.60;;;23.83;;
62332;SDS011;48624;49.812;8.562;2022-11-20T05:15:06;57.37;;;23.43;;
62332;SDS011;48624;49.812;8.562;2022-11-20T05:17:31;54.47;;;24.83;;
62332;SDS011;48624;49.812;8.562;2022-11-20T05:19:56;54.63;;;22.93;;
62332;SDS011;48624;49.812;8.562;2022-11-20T05:22:22;59.50;;;24.97;;
62332;SDS011;48624;49.812;8.562;2022-11-20T05:24:48;61.07;;;24.77;;
62332;SDS011;48624;49.812;8.562;2022-11-20T05:27:13;59.60;;;25.37;;
62332;SDS011;48624;49.812;8.562;2022-11-20T05:29:38;61.83;;;25.33;;
62332;SDS011;48624;49.812;8.562;2022-11-20T05:32:04;57.07;;;24.77;;
62332;SDS011;48624;49.812;8.562;2022-11-20T05:34:31;56.90;;;23.83;;
62332;SDS011;48624;49.812;8.562;2022-11-20T05:36:56;51.33;;;24.10;;
62332;SDS011;48624;49.812;8.562;2022-11-20T05:39:21;60.43;;;27.23;;
62332;SDS011;48624;49.812;8.562;2022-11-20T05:41:47;68.83;;;28.37;;
62332;SDS011;48624;49.812;8.562;2022-11-20T05:44:32;69.77;;;28.23;;
62332;SDS011;48624;49.812;8.562;2022-11-20T05:46:57;71.50;;;27.93;;
62332;SDS011;48624;49.812;8.562;2022-11-20T05:49:24;73.83;;;27.33;;
62332;SDS011;48624;49.812;8.562;2022-11-20T05:51:49;61.47;;;24.40;;
62332;SDS011;48624;49.812;8.562;2022-11-20T05:54:14;67.10;;;27.47;;
62332;SDS011;48624;49.812;8.562;2022-11-20T05:56:40;65.17;;;26.50;;
62332;SDS011;48624;49.812;8.562;2022-11-20T05:59:05;65.47;;;25.07;;
62332;SDS011;48624;49.812;8.562;2022-11-20T06:01:30;61.60;;;25.63;;
62332;SDS011;48624;49.812;8.562;2022-11-20T06:03:55;70.20;;;26.93;;
62332;SDS011;48624;49.812;8.562;2022-11-20T06:06:21;59.43;;;24.73;;
62332;SDS011;48624;49.812;8.562;2022-11-20T06:08:47;64.17;;;25.63;;
62332;SDS011;48624;49.812;8.562;2022-11-20T06:11:13;62.27;;;25.33;;
62332;SDS011;48624;49.812;8.562;2022-11-20T06:13:39;74.87;;;27.77;;
62332;SDS011;48624;49.812;8.562;2022-11-20T06:16:05;69.37;;;26.53;;
62332;SDS011;48624;49.812;8.562;2022-11-20T06:18:30;75.40;;;27.70;;
62332;SDS011;48624;49.812;8.562;2022-11-20T06:21:38;66.27;;;26.23;;
62332;SDS011;48624;49.812;8.562;2022-11-20T06:23:45;66.43;;;27.17;;
62332;SDS011;48624;49.812;8.562;2022-11-20T06:26:16;71.60;;;27.77;;
62332;SDS011;48624;49.812;8.562;2022-11-20T06:28:42;77.03;;;28.97;;
62332;SDS011;48624;49.812;8.562;2022-11-20T06:31:10;64.80;;;24.77;;
62332;SDS011;48624;49.812;8.562;2022-11-20T06:33:36;73.70;;;27.37;;
62332;SDS011;48624;49.812;8.562;2022-11-20T06:36:02;76.00;;;27.47;;
62332;SDS011;48624;49.812;8.562;2022-11-20T06:38:30;70.33;;;26.33;;
62332;SDS011;48624;49.812;8.562;2022-11-20T06:40:56;66.60;;;26.97;;
62332;SDS011;48624;49.812;8.562;2022-11-20T06:43:22;64.93;;;25.20;;
62332;SDS011;48624;49.812;8.562;2022-11-20T06:45:54;65.83;;;23.47;;
62332;SDS011;48624;49.812;8.562;2022-11-20T06:48:21;63.97;;;26.73;;
62332;SDS011;48624;49.812;8.562;2022-11-20T06:50:47;65.97;;;24.47;;
62332;SDS011;48624;49.812;8.562;2022-11-20T06:53:14;64.93;;;26.03;;
62332;SDS011;48624;49.812;8.562;2022-11-20T06:55:44;65.33;;;24.23;;
62332;SDS011;48624;49.812;8.562;2022-11-20T06:58:11;58.40;;;23.53;;
62332;SDS011;48624;49.812;8.562;2022-11-20T07:00:37;54.43;;;22.90;;
62332;SDS011;48624;49.812;8.562;2022-11-20T07:03:06;51.67;;;21.07;;
62332;SDS011;48624;49.812;8.562;2022-11-20T07:05:33;55.23;;;21.57;;
62332;SDS011;48624;49.812;8.562;2022-11-20T07:07:59;49.40;;;22.20;;
62332;SDS011;48624;49.812;8.562;2022-11-20T07:10:25;60.23;;;22.97;;
62332;SDS011;48624;49.812;8.562;2022-11-20T07:12:51;56.90;;;22.73;;
62332;SDS011;48624;49.812;8.562;2022-11-20T07:15:18;62.87;;;23.07;;
62332;SDS011;48624;49.812;8.562;2022-11-20T07:17:44;59.30;;;22.70;;
62332;SDS011;48624;49.812;8.562;2022-11-20T07:20:10;63.17;;;23.10;;
62332;SDS011;48624;49.812;8.562;2022-11-20T07:22:36;64.00;;;22.57;;
62332;SDS011;48624;49.812;8.562;2022-11-20T07:25:01;61.30;;;24.73;;
62332;SDS011;48624;49.812;8.562;2022-11-20T07:27:28;54.97;;;22.37;;
62332;SDS011;48624;49.812;8.562;2022-11-20T07:29:54;50.37;;;20.27;;
62332;SDS011;48624;49.812;8.562;2022-11-20T07:32:20;57.17;;;21.53;;
62332;SDS011;48624;49.812;8.562;2022-11-20T07:34:45;56.17;;;22.10;;
62332;SDS011;48624;49.812;8.562;2022-11-20T07:37:11;62.10;;;23.00;;
62332;SDS011;48624;49.812;8.562;2022-11-20T07:39:37;56.27;;;22.80;;
62332;SDS011;48624;49.812;8.562;2022-11-20T07:42:02;55.60;;;22.27;;
62332;SDS011;48624;49.812;8.562;2022-11-20T07:44:27;56.80;;;22.10;;
62332;SDS011;48624;49.812;8.562;2022-11-20T07:46:54;63.10;;;24.73;;
62332;SDS011;48624;49.812;8.562;2022-11-20T07:49:19;53.20;;;23.17;;
62332;SDS011;48624;49.812;8.562;2022-11-20T07:51:44;68.17;;;23.43;;
62332;SDS011;48624;49.812;8.562;2022-11-20T07:54:10;62.87;;;22.67;;
62332;SDS011;48624;49.812;8.562;2022-11-20T07:56:35;59.10;;;23.20;;
62332;SDS011;48624;49.812;8.562;2022-11-20T07:59:01;51.80;;;21.20;;
62332;SDS011;48624;49.812;8.562;2022-11-20T08:01:27;56.43;;;22.30;;
62332;SDS011;48624;49.812;8.562;2022-11-20T08:03:53;54.10;;;23.80;;
62332;SDS011;48624;49.812;8.562;2022-11-20T08:06:18;57.80;;;23.23;;
62332;SDS011;48624;49.812;8.562;2022-11-20T08:08:44;58.27;;;21.47;;
62332;SDS011;48624;49.812;8.562;2022-11-20T08:11:10;58.70;;;21.63;;
62332;SDS011;48624;49.812;8.562;2022-11-20T08:13:54;62.23;;;24.27;;
62332;SDS011;48624;49.812;8.562;2022-11-20T08:16:41;58.37;;;22.77;;
62332;SDS011;48624;49.812;8.562;2022-11-20T08:19:11;58.17;;;22.20;;
62332;SDS011;48624;49.812;8.562;2022-11-20T08:21:38;56.93;;;22.87;;
62332;SDS011;48624;49.812;8.562;2022-11-20T08:24:03;58.00;;;23.53;;
62332;SDS011;48624;49.812;8.562;2022-11-20T08:26:29;55.00;;;25.77;;
62332;SDS011;48624;49.812;8.562;2022-11-20T08:28:55;55.93;;;21.60;;
62332;SDS011;48624;49.812;8.562;2022-11-20T08:31:22;57.13;;;22.13;;
62332;SDS011;48624;49.812;8.562;2022-11-20T08:33:48;55.53;;;23.50;;
62332;SDS011;48624;49.812;8.562;2022-11-20T08:36:14;50.83;;;22.93;;
62332;SDS011;48624;49.812;8.562;2022-11-20T08:38:40;58.47;;;22.67;;
62332;SDS011;48624;49.812;8.562;2022-11-20T08:41:05;52.57;;;22.10;;
62332;SDS011;48624;49.812;8.562;2022-11-20T08:43:50;69.07;;;22.30;;
62332;SDS011;48624;49.812;8.562;2022-11-20T08:46:17;59.13;;;20.97;;
62332;SDS011;48624;49.812;8.562;2022-11-20T08:48:43;65.50;;;22.40;;
62332;SDS011;48624;49.812;8.562;2022-11-20T08:51:08;66.00;;;23.53;;
62332;SDS011;48624;49.812;8.562;2022-11-20T08:53:34;56.77;;;23.53;;
62332;SDS011;48624;49.812;8.562;2022-11-20T08:56:00;58.47;;;24.33;;
62332;SDS011;48624;49.812;8.562;2022-11-20T08:58:25;53.50;;;24.07;;
62332;SDS011;48624;49.812;8.562;2022-11-20T09:00:51;44.87;;;21.50;;
62332;SDS011;48624;49.812;8.562;2022-11-20T09:03:16;46.17;;;23.60;;
62332;SDS011;48624;49.812;8.562;2022-11-20T09:05:41;52.60;;;23.37;;
62332;SDS011;48624;49.812;8.562;2022-11-20T09:08:07;45.90;;;21.63;;
62332;SDS011;48624;49.812;8.562;2022-11-20T09:10:33;44.97;;;22.97;;
62332;SDS011;48624;49.812;8.562;2022-11-20T09:12:58;45.60;;;22.20;;
62332;SDS011;48624;49.812;8.562;2022-11-20T09:15:24;42.13;;;20.93;;
62332;SDS011;48624;49.812;8.562;2022-11-20T09:18:00;43.17;;;20.60;;
62332;SDS011;48624;49.812;8.562;2022-11-20T09:20:28;39.63;;;20.93;;
62332;SDS011;48624;49.812;8.562;2022-11-20T09:22:55;37.15;;;20.45;;
62332;SDS011;48624;49.812;8.562;2022-11-20T09:25:21;40.40;;;19.60;;
62332;SDS011;48624;49.812;8.562;2022-11-20T09:27:46;37.83;;;19.33;;
62332;SDS011;48624;49.812;8.562;2022-11-20T09:30:15;33.43;;;19.13;;
62332;SDS011;48624;49.812;8.562;2022-11-20T09:32:41;40.97;;;19.37;;
62332;SDS011;48624;49.812;8.562;2022-11-20T09:35:07;35.78;;;18.27;;
62332;SDS011;48624;49.812;8.562;2022-11-20T09:37:33;38.20;;;19.23;;
62332;SDS011;48624;49.812;8.562;2022-11-20T09:39:59;32.93;;;18.13;;
62332;SDS011;48624;49.812;8.562;2022-11-20T09:42:32;30.95;;;17.50;;
62332;SDS011;48624;49.812;8.562;2022-11-20T09:53:28;35.10;;;18.97;;
62332;SDS011;48624;49.812;8.562;2022-11-20T09:56:11;30.13;;;16.58;;
62332;SDS011;48624;49.812;8.562;2022-11-20T10:01:15;39.60;;;18.17;;
62332;SDS011;48624;49.812;8.562;2022-11-20T10:03:45;32.07;;;16.97;;
62332;SDS011;48624;49.812;8.562;2022-11-20T10:06:23;32.43;;;17.27;;
62332;SDS011;48624;49.812;8.562;2022-11-20T10:08:56;33.40;;;19.43;;
62332;SDS011;48624;49.812;8.562;2022-11-20T10:11:33;32.90;;;17.80;;
62332;SDS011;48624;49.812;8.562;2022-11-20T10:14:24;31.70;;;17.48;;
62332;SDS011;48624;49.812;8.562;2022-11-20T10:17:02;28.45;;;16.85;;
62332;SDS011;48624;49.812;8.562;2022-11-20T10:30:37;32.90;;;17.90;;
62332;SDS011;48624;49.812;8.562;2022-11-20T10:33:16;30.27;;;17.45;;
62332;SDS011;48624;49.812;8.562;2022-11-20T10:35:50;32.22;;;17.65;;
62332;SDS011;48624;49.812;8.562;2022-11-20T10:38:25;34.67;;;19.97;;
62332;SDS011;48624;49.812;8.562;2022-11-20T10:41:04;31.00;;;16.73;;
62332;SDS011;48624;49.812;8.562;2022-11-20T10:43:50;27.20;;;16.13;;
62332;SDS011;48624;49.812;8.562;2022-11-20T10:46:22;31.07;;;16.90;;
62332;SDS011;48624;49.812;8.562;2022-11-20T10:48:48;32.00;;;18.08;;
62332;SDS011;48624;49.812;8.562;2022-11-20T10:56:52;29.65;;;17.45;;
62332;SDS011;48624;49.812;8.562;2022-11-20T11:02:23;30.95;;;16.70;;
62332;SDS011;48624;49.812;8.562;2022-11-20T11:07:46;31.00;;;17.60;;
62332;SDS011;48624;49.812;8.562;2022-11-20T11:10:21;31.57;;;16.33;;
62332;SDS011;48624;49.812;8.562;2022-11-20T11:12:50;34.00;;;18.60;;
62332;SDS011;48624;49.812;8.562;2022-11-20T11:15:30;34.77;;;18.83;;
62332;SDS011;48624;49.812;8.562;2022-11-20T11:18:02;36.33;;;19.90;;
62332;SDS011;48624;49.812;8.562;2022-11-20T11:20:28;43.00;;;21.80;;
62332;SDS011;48624;49.812;8.562;2022-11-20T11:22:55;45.37;;;22.10;;
62332;SDS011;48624;49.812;8.562;2022-11-20T11:25:29;38.80;;;18.77;;
62332;SDS011;48624;49.812;8.562;2022-11-20T11:27:59;34.60;;;18.20;;
62332;SDS011;48624;49.812;8.562;2022-11-20T11:30:27;36.53;;;20.77;;
62332;SDS011;48624;49.812;8.562;2022-11-20T11:33:04;36.13;;;20.00;;
62332;SDS011;48624;49.812;8.562;2022-11-20T11:35:31;34.93;;;19.43;;
62332;SDS011;48624;49.812;8.562;2022-11-20T11:38:04;45.22;;;20.83;;
62332;SDS011;48624;49.812;8.562;2022-11-20T11:40:32;35.93;;;20.77;;
62332;SDS011;48624;49.812;8.562;2022-11-20T11:43:01;40.50;;;22.13;;
62332;SDS011;48624;49.812;8.562;2022-11-20T11:45:52;38.57;;;20.23;;
62332;SDS011;48624;49.812;8.562;2022-11-20T11:48:19;36.77;;;19.77;;
62332;SDS011;48624;49.812;8.562;2022-11-20T11:50:49;37.77;;;21.07;;
62332;SDS011;48624;49.812;8.562;2022-11-20T11:53:16;44.40;;;20.43;;
62332;SDS011;48624;49.812;8.562;2022-11-20T11:55:45;35.90;;;20.10;;
62332;SDS011;48624;49.812;8.562;2022-11-20T12:01:12;36.00;;;19.80;;
62332;SDS011;48624;49.812;8.562;2022-11-20T12:03:42;34.50;;;16.23;;
62332;SDS011;48624;49.812;8.562;2022-11-20T12:06:13;41.10;;;19.00;;
62332;SDS011;48624;49.812;8.562;2022-11-20T12:08:51;36.72;;;17.88;;
62332;SDS011;48624;49.812;8.562;2022-11-20T12:14:14;38.43;;;19.27;;
62332;SDS011;48624;49.812;8.562;2022-11-20T12:17:00;37.40;;;18.20;;
62332;SDS011;48624;49.812;8.562;2022-11-20T12:19:28;40.03;;;20.17;;
62332;SDS011;48624;49.812;8.562;2022-11-20T12:24:52;35.90;;;17.23;;
62332;SDS011;48624;49.812;8.562;2022-11-20T12:30:08;34.83;;;16.73;;
62332;SDS011;48624;49.812;8.562;2022-11-20T12:43:26;41.45;;;20.38;;
62332;SDS011;48624;49.812;8.562;2022-11-20T12:46:18;40.83;;;20.77;;
62332;SDS011;48624;49.812;8.562;2022-11-20T12:49:05;36.27;;;18.87;;
62332;SDS011;48624;49.812;8.562;2022-11-20T12:51:58;37.33;;;19.40;;
62332;SDS011;48624;49.812;8.562;2022-11-20T12:54:52;35.40;;;18.67;;
62332;SDS011;48624;49.812;8.562;2022-11-20T12:57:50;36.03;;;17.75;;
62332;SDS011;48624;49.812;8.562;2022-11-20T13:00:23;41.87;;;21.07;;
62332;SDS011;48624;49.812;8.562;2022-11-20T13:05:21;36.40;;;17.92;;
62332;SDS011;48624;49.812;8.562;2022-11-20T13:07:56;33.08;;;17.67;;
62332;SDS011;48624;49.812;8.562;2022-11-20T13:19:13;32.83;;;18.80;;
62332;SDS011;48624;49.812;8.562;2022-11-20T13:21:41;34.83;;;18.00;;
62332;SDS011;48624;49.812;8.562;2022-11-20T13:26:38;33.03;;;18.30;;
62332;SDS011;48624;49.812;8.562;2022-11-20T13:29:16;61.80;;;32.35;;
62332;SDS011;48624;49.812;8.562;2022-11-20T13:31:44;40.42;;;20.10;;
62332;SDS011;48624;49.812;8.562;2022-11-20T13:34:13;39.80;;;21.65;;
62332;SDS011;48624;49.812;8.562;2022-11-20T13:36:50;35.10;;;17.60;;
62332;SDS011;48624;49.812;8.562;2022-11-20T13:39:30;33.35;;;18.60;;
62332;SDS011;48624;49.812;8.562;2022-11-20T13:41:58;38.40;;;18.40;;
62332;SDS011;48624;49.812;8.562;2022-11-20T13:44:39;36.13;;;20.33;;
62332;SDS011;48624;49.812;8.562;2022-11-20T13:47:28;38.03;;;19.77;;
62332;SDS011;48624;49.812;8.562;2022-11-20T13:49:57;37.22;;;17.60;;
62332;SDS011;48624;49.812;8.562;2022-11-20T13:52:43;36.85;;;18.45;;
62332;SDS011;48624;49.812;8.562;2022-11-20T13:55:29;33.30;;;16.98;;
62332;SDS011;48624;49.812;8.562;2022-11-20T14:01:08;39.87;;;19.60;;
62332;SDS011;48624;49.812;8.562;2022-11-20T14:03:36;39.17;;;19.50;;
62332;SDS011;48624;49.812;8.562;2022-11-20T14:06:03;40.38;;;19.17;;
62332;SDS011;48624;49.812;8.562;2022-11-20T14:08:33;39.70;;;19.92;;
62332;SDS011;48624;49.812;8.562;2022-11-20T14:11:05;38.73;;;20.13;;
62332;SDS011;48624;49.812;8.562;2022-11-20T14:13:36;39.45;;;20.05;;
62332;SDS011;48624;49.812;8.562;2022-11-20T14:16:01;37.95;;;20.63;;
62332;SDS011;48624;49.812;8.562;2022-11-20T14:18:27;42.13;;;19.35;;
62332;SDS011;48624;49.812;8.562;2022-11-20T14:20:53;40.47;;;20.20;;
62332;SDS011;48624;49.812;8.562;2022-11-20T14:23:28;39.67;;;20.75;;
62332;SDS011;48624;49.812;8.562;2022-11-20T14:25:54;42.33;;;20.92;;
62332;SDS011;48624;49.812;8.562;2022-11-20T14:28:27;50.40;;;21.77;;
62332;SDS011;48624;49.812;8.562;2022-11-20T14:30:54;99.72;;;45.65;;
62332;SDS011;48624;49.812;8.562;2022-11-20T14:33:21;56.00;;;22.67;;
62332;SDS011;48624;49.812;8.562;2022-11-20T14:35:53;69.63;;;34.03;;
62332;SDS011;48624;49.812;8.562;2022-11-20T14:38:25;84.90;;;37.00;;
62332;SDS011;48624;49.812;8.562;2022-11-20T14:40:52;59.50;;;27.63;;
62332;SDS011;48624;49.812;8.562;2022-11-20T14:43:27;188.55;;;80.63;;
62332;SDS011;48624;49.812;8.562;2022-11-20T14:45:57;84.07;;;36.92;;
62332;SDS011;48624;49.812;8.562;2022-11-20T14:48:32;46.20;;;22.85;;
62332;SDS011;48624;49.812;8.562;2022-11-20T14:51:02;51.63;;;21.67;;
62332;SDS011;48624;49.812;8.562;2022-11-20T14:53:27;51.00;;;23.05;;
62332;SDS011;48624;49.812;8.562;2022-11-20T14:56:00;41.38;;;21.40;;
62332;SDS011;48624;49.812;8.562;2022-11-20T14:58:27;48.33;;;19.00;;
62332;SDS011;48624;49.812;8.562;2022-11-20T15:00:58;44.13;;;21.45;;
62332;SDS011;48624;49.812;8.562;2022-11-20T15:03:35;46.35;;;20.02;;
62332;SDS011;48624;49.812;8.562;2022-11-20T15:06:02;42.20;;;19.63;;
62332;SDS011;48624;49.812;8.562;2022-11-20T15:08:30;45.15;;;20.40;;
62332;SDS011;48624;49.812;8.562;2022-11-20T15:10:55;45.65;;;19.75;;
62332;SDS011;48624;49.812;8.562;2022-11-20T15:13:34;48.17;;;21.05;;
62332;SDS011;48624;49.812;8.562;2022-11-20T15:16:02;43.03;;;21.05;;
62332;SDS011;48624;49.812;8.562;2022-11-20T15:18:37;48.75;;;20.98;;
62332;SDS011;48624;49.812;8.562;2022-11-20T15:21:13;43.00;;;20.90;;
62332;SDS011;48624;49.812;8.562;2022-11-20T15:23:40;46.25;;;21.33;;
62332;SDS011;48624;49.812;8.562;2022-11-20T15:26:06;50.30;;;20.20;;
62332;SDS011;48624;49.812;8.562;2022-11-20T15:28:36;55.07;;;25.33;;
62332;SDS011;48624;49.812;8.562;2022-11-20T15:31:09;48.55;;;21.95;;
62332;SDS011;48624;49.812;8.562;2022-11-20T15:33:37;52.40;;;25.63;;
62332;SDS011;48624;49.812;8.562;2022-11-20T15:36:03;47.53;;;21.08;;
62332;SDS011;48624;49.812;8.562;2022-11-20T15:38:28;48.50;;;20.80;;
62332;SDS011;48624;49.812;8.562;2022-11-20T15:40:54;43.95;;;22.48;;
62332;SDS011;48624;49.812;8.562;2022-11-20T15:43:19;46.78;;;22.85;;
62332;SDS011;48624;49.812;8.562;2022-11-20T15:45:51;46.13;;;21.75;;
62332;SDS011;48624;49.812;8.562;2022-11-20T15:48:23;47.55;;;23.55;;
62332;SDS011;48624;49.812;8.562;2022-11-20T15:53:49;33.20;;;17.08;;